createdAt,value
2022-11-20T00:02:16.034Z,-4.27
2022-11-20T00:04:45.649Z,-4.32
2022-11-20T00:07:17.528Z,-4.33
2022-11-20T00:09:58.708Z,-4.30
2022-11-20T00:12:28.985Z,-4.22
2022-11-20T00:15:05.703Z,-4.29
2022-11-20T00:17:41.934Z,-4.32
2022-11-20T00:20:12.640Z,-4.27
2022-11-20T00:22:43.722Z,-4.25
2022-11-20T00:25:16.953Z,-4.21
2022-11-20T00:27:47.785Z,-4.21
2022-11-20T00:30:26.651Z,-4.18
2022-11-20T00:33:01.701Z,-4.21
2022-11-20T00:35:36.437Z,-4.15
2022-11-20T00:38:17.665Z,-4.15
2022-11-20T00:40:48.846Z,-4.12
2022-11-20T00:43:25.939Z,-4.12
2022-11-20T00:46:01.423Z,-4.14
2022-11-20T00:48:31.313Z,-4.09
2022-11-20T00:51:00.383Z,-4.16
2022-11-20T00:53:31.165Z,-4.12
2022-11-20T00:56:02.988Z,-4.11
2022-11-20T00:58:34.915Z,-4.14
2022-11-20T01:01:07.574Z,-4.15
2022-11-20T01:03:42.111Z,-4.19
2022-11-20T01:06:14.188Z,-4.13
2022-11-20T01:08:45.614Z,-4.09
2022-11-20T01:11:17.838Z,-4.04
2022-11-20T01:13:50.734Z,-4.06
2022-11-20T01:16:25.321Z,-4.18
2022-11-20T01:18:59.363Z,-4.13
2022-11-20T01:21:34.721Z,-4.20
2022-11-20T01:24:08.231Z,-4.17
2022-11-20T01:26:43.002Z,-4.16
2022-11-20T01:29:20.049Z,-4.15
2022-11-20T01:31:53.717Z,-4.11
2022-11-20T01:34:26.809Z,-4.11
2022-11-20T01:36:59.884Z,-4.02
2022-11-20T01:39:33.857Z,-4.08
2022-11-20T01:42:20.101Z,-3.99
2022-11-20T01:45:00.752Z,-3.99
2022-11-20T01:47:46.865Z,-4.02
2022-11-20T01:50:24.973Z,-4.04
2022-11-20T01:53:06.047Z,-4.00
2022-11-20T01:55:46.444Z,-3.97
2022-11-20T01:58:19.418Z,-3.94
2022-11-20T02:01:03.694Z,-3.97
2022-11-20T02:03:39.578Z,-3.87
2022-11-20T02:06:21.182Z,-3.90
2022-11-20T02:08:59.832Z,-3.88
2022-11-20T02:11:44.754Z,-3.99
2022-11-20T02:14:18.181Z,-3.99
2022-11-20T02:16:57.441Z,-3.96
2022-11-20T02:19:44.446Z,-3.96
2022-11-20T02:22:19.846Z,-3.95
2022-11-20T02:24:57.037Z,-4.03
2022-11-20T02:27:30.374Z,-4.01
2022-11-20T02:30:05.931Z,-4.09
2022-11-20T02:32:41.585Z,-4.06
2022-11-20T02:35:32.895Z,-4.05
2022-11-20T02:38:04.899Z,-4.00
2022-11-20T02:40:36.204Z,-4.06
2022-11-20T02:43:16.986Z,-3.97
2022-11-20T02:45:49.522Z,-3.97
2022-11-20T02:48:21.152Z,-3.97
2022-11-20T02:50:58.763Z,-3.94
2022-11-20T02:53:40.214Z,-3.93
2022-11-20T02:56:24.542Z,-3.93
2022-11-20T02:58:55.726Z,-3.90
2022-11-20T03:01:28.195Z,-3.89
2022-11-20T03:04:08.668Z,-3.87
2022-11-20T03:06:51.921Z,-3.92
2022-11-20T03:09:23.950Z,-3.97
2022-11-20T03:12:00.142Z,-3.93
2022-11-20T03:14:40.716Z,-3.94
2022-11-20T03:17:09.876Z,-3.89
2022-11-20T03:19:42.915Z,-3.89
2022-11-20T03:22:13.996Z,-3.87
2022-11-20T03:24:51.602Z,-3.88
2022-11-20T03:27:26.086Z,-3.85
2022-11-20T03:30:27.602Z,-3.85
2022-11-20T03:32:59.651Z,-3.87
2022-11-20T03:35:33.217Z,-3.87
2022-11-20T03:38:02.774Z,-3.87
2022-11-20T03:40:38.886Z,-3.83
2022-11-20T03:43:12.974Z,-3.90
2022-11-20T03:45:41.639Z,-3.81
2022-11-20T03:48:10.295Z,-3.87
2022-11-20T03:50:40.788Z,-3.78
2022-11-20T03:53:10.045Z,-3.83
2022-11-20T03:55:39.940Z,-3.84
2022-11-20T03:58:31.219Z,-3.86
2022-11-20T04:01:08.765Z,-3.96
2022-11-20T04:03:44.536Z,-3.88
2022-11-20T04:06:37.147Z,-3.89
2022-11-20T04:09:14.199Z,-3.90
2022-11-20T04:11:44.935Z,-3.89
2022-11-20T04:14:17.963Z,-3.85
2022-11-20T04:16:48.258Z,-3.95
2022-11-20T04:19:19.118Z,-3.91
2022-11-20T04:21:48.323Z,-3.95
2022-11-20T04:24:26.675Z,-3.97
2022-11-20T04:26:55.337Z,-3.97
2022-11-20T04:29:34.263Z,-4.06
2022-11-20T04:34:49.771Z,-4.06
2022-11-20T04:37:20.859Z,-4.13
2022-11-20T04:39:55.448Z,-4.14
2022-11-20T04:42:31.017Z,-4.21
2022-11-20T04:45:04.562Z,-4.31
2022-11-20T04:47:33.318Z,-4.30
2022-11-20T04:50:09.244Z,-4.37
2022-11-20T04:53:01.616Z,-4.33
2022-11-20T04:55:35.357Z,-4.37
2022-11-20T04:58:04.811Z,-4.23
2022-11-20T05:00:38.242Z,-4.31
2022-11-20T05:03:09.345Z,-4.29
2022-11-20T05:08:31.107Z,-4.24
2022-11-20T05:11:05.799Z,-4.21
2022-11-20T05:13:35.538Z,-4.24
2022-11-20T05:16:08.358Z,-4.22
2022-11-20T05:18:45.150Z,-4.15
2022-11-20T05:21:15.171Z,-4.21
2022-11-20T05:23:44.979Z,-4.30
2022-11-20T05:26:21.005Z,-4.22
2022-11-20T05:28:50.362Z,-4.13
2022-11-20T05:31:27.245Z,-4.19
2022-11-20T05:33:59.276Z,-4.15
2022-11-20T05:36:45.899Z,-4.15
2022-11-20T05:39:20.409Z,-4.15
2022-11-20T05:42:09.304Z,-4.15
2022-11-20T05:44:39.229Z,-4.15
2022-11-20T05:47:09.287Z,-4.22
2022-11-20T05:49:39.917Z,-4.21
2022-11-20T05:52:09.122Z,-4.13
2022-11-20T05:54:41.009Z,-4.14
2022-11-20T05:57:09.708Z,-4.12
2022-11-20T05:59:38.438Z,-4.13
2022-11-20T06:02:15.399Z,-4.11
2022-11-20T06:04:47.270Z,-4.12
2022-11-20T06:07:17.182Z,-4.09
2022-11-20T06:09:45.854Z,-4.08
2022-11-20T06:12:24.011Z,-4.03
2022-11-20T06:14:53.862Z,-3.96
2022-11-20T06:17:24.958Z,-4.08
2022-11-20T06:19:53.704Z,-4.08
2022-11-20T06:22:23.270Z,-4.14
2022-11-20T06:24:52.092Z,-4.07
2022-11-20T06:27:21.952Z,-4.12
2022-11-20T06:30:01.394Z,-4.08
2022-11-20T06:32:32.836Z,-4.13
2022-11-20T06:35:01.732Z,-4.06
2022-11-20T06:37:31.666Z,-4.04
2022-11-20T06:40:03.407Z,-4.00
2022-11-20T06:42:34.708Z,-3.99
2022-11-20T06:45:04.603Z,-3.99
2022-11-20T06:47:36.144Z,-3.96
2022-11-20T06:50:09.470Z,-3.97
2022-11-20T06:52:43.465Z,-3.94
2022-11-20T06:55:12.418Z,-3.90
2022-11-20T06:57:42.053Z,-3.98
2022-11-20T07:00:12.764Z,-3.96
2022-11-20T07:02:49.311Z,-3.99
2022-11-20T07:05:19.010Z,-4.01
2022-11-20T07:07:47.804Z,-4.01
2022-11-20T07:10:17.144Z,-3.95
2022-11-20T07:16:02.959Z,-3.99
2022-11-20T07:18:33.176Z,-3.99
2022-11-20T07:21:05.402Z,-3.95
2022-11-20T07:23:34.681Z,-3.90
2022-11-20T07:26:09.387Z,-3.90
2022-11-20T07:28:38.640Z,-3.81
2022-11-20T07:31:08.805Z,-3.78
2022-11-20T07:33:39.625Z,-3.69
2022-11-20T07:36:16.017Z,-3.68
2022-11-20T07:38:46.949Z,-3.61
2022-11-20T07:41:20.701Z,-3.64
2022-11-20T07:43:50.620Z,-3.71
2022-11-20T07:46:19.392Z,-3.68
2022-11-20T07:48:49.445Z,-3.59
2022-11-20T07:51:18.141Z,-3.59
2022-11-20T07:53:47.011Z,-3.60
2022-11-20T07:56:15.950Z,-3.61
2022-11-20T07:58:47.073Z,-3.55
2022-11-20T08:01:15.890Z,-3.58
2022-11-20T08:03:44.815Z,-3.51
2022-11-20T08:06:15.845Z,-3.51
2022-11-20T08:08:45.734Z,-3.50
2022-11-20T08:11:31.900Z,-3.49
2022-11-20T08:14:16.922Z,-3.37
2022-11-20T08:16:52.737Z,-3.36
2022-11-20T08:19:22.194Z,-3.25
2022-11-20T08:21:52.704Z,-3.20
2022-11-20T08:24:21.319Z,-3.23
2022-11-20T08:26:51.337Z,-3.22
2022-11-20T08:29:20.186Z,-3.31
2022-11-20T08:31:49.256Z,-3.26
2022-11-20T08:34:19.294Z,-3.16
2022-11-20T08:36:51.410Z,-3.16
2022-11-20T08:39:20.447Z,-3.13
2022-11-20T08:41:49.372Z,-3.15
2022-11-20T08:44:19.985Z,-3.10
2022-11-20T08:46:48.706Z,-3.03
2022-11-20T08:49:17.556Z,-3.09
2022-11-20T08:51:49.391Z,-3.01
2022-11-20T08:54:25.514Z,-2.97
2022-11-20T08:56:55.651Z,-3.06
2022-11-20T09:02:22.214Z,-3.02
2022-11-20T09:04:54.414Z,-3.03
2022-11-20T09:07:23.169Z,-3.01
2022-11-20T09:10:16.541Z,-3.01
2022-11-20T09:12:41.846Z,-2.97
2022-11-20T09:15:12.324Z,-2.95
2022-11-20T09:17:41.018Z,-2.92
2022-11-20T09:20:11.013Z,-2.96
2022-11-20T09:22:42.774Z,-2.95
2022-11-20T09:25:13.021Z,-2.92
2022-11-20T09:27:42.491Z,-2.95
2022-11-20T09:35:49.939Z,-2.88
2022-11-20T09:38:44.749Z,-2.90
2022-11-20T09:41:46.879Z,-2.91
2022-11-20T09:44:40.944Z,-2.99
2022-11-20T09:47:19.280Z,-2.90
2022-11-20T09:50:09.324Z,-2.88
2022-11-20T09:52:57.989Z,-2.87
2022-11-20T09:55:28.692Z,-2.81
2022-11-20T09:58:01.571Z,-2.81
2022-11-20T10:00:31.530Z,-2.80
2022-11-20T10:03:08.124Z,-2.74
2022-11-20T10:05:46.363Z,-2.73
2022-11-20T10:08:23.904Z,-2.74
2022-11-20T10:11:06.994Z,-2.73
2022-11-20T10:13:49.194Z,-2.77
2022-11-20T10:16:39.531Z,-2.71
2022-11-20T10:19:34.052Z,-2.59
2022-11-20T10:22:19.586Z,-2.53
2022-11-20T10:24:59.386Z,-2.40
2022-11-20T10:28:02.459Z,-2.44
2022-11-20T10:30:39.377Z,-2.40
2022-11-20T10:33:17.898Z,-2.41
2022-11-20T10:35:57.966Z,-2.38
2022-11-20T10:38:37.053Z,-2.35
2022-11-20T10:41:26.854Z,-2.43
2022-11-20T10:44:05.671Z,-2.34
2022-11-20T10:46:45.254Z,-2.32
2022-11-20T10:49:21.584Z,-2.50
2022-11-20T10:52:06.989Z,-2.51
2022-11-20T10:54:46.964Z,-2.49
2022-11-20T10:57:33.749Z,-2.36
2022-11-20T11:00:09.550Z,-2.34
2022-11-20T11:02:46.705Z,-2.23
2022-11-20T11:05:34.567Z,-2.26
2022-11-20T11:08:07.471Z,-2.27
2022-11-20T11:10:47.925Z,-2.25
2022-11-20T11:13:25.699Z,-2.29
2022-11-20T11:15:55.393Z,-2.14
2022-11-20T11:18:31.082Z,-2.18
2022-11-20T11:21:03.017Z,-2.21
2022-11-20T11:23:37.314Z,-2.34
2022-11-20T11:26:10.075Z,-2.27
2022-11-20T11:28:38.980Z,-2.28
2022-11-20T11:31:08.230Z,-2.22
2022-11-20T11:33:38.368Z,-2.25
2022-11-20T11:36:21.939Z,-2.23
2022-11-20T11:38:55.122Z,-2.17
2022-11-20T11:41:32.681Z,-2.17
2022-11-20T11:44:36.861Z,-2.34
2022-11-20T11:47:12.112Z,-2.36
2022-11-20T11:49:42.575Z,-2.34
2022-11-20T11:52:17.977Z,-2.28
2022-11-20T11:54:55.444Z,-2.33
2022-11-20T11:57:32.246Z,-2.30
2022-11-20T12:00:08.616Z,-2.38
2022-11-20T12:02:57.504Z,-2.38
2022-11-20T12:05:34.307Z,-2.38
2022-11-20T12:08:17.425Z,-2.28
2022-11-20T12:10:53.289Z,-2.25
2022-11-20T12:13:46.970Z,-2.33
2022-11-20T12:16:21.063Z,-2.26
2022-11-20T12:18:54.120Z,-2.22
2022-11-20T12:21:39.722Z,-2.20
2022-11-20T12:24:39.491Z,-2.25
2022-11-20T12:27:51.429Z,-2.15
2022-11-20T12:30:22.546Z,-2.26
2022-11-20T12:33:13.848Z,-2.15
2022-11-20T12:36:08.228Z,-2.10
2022-11-20T12:39:01.806Z,-2.19
2022-11-20T12:42:10.971Z,-2.19
2022-11-20T12:45:13.465Z,-2.25
2022-11-20T12:48:11.250Z,-2.22
2022-11-20T12:51:14.074Z,-2.17
2022-11-20T12:54:08.587Z,-2.20
2022-11-20T12:56:51.293Z,-2.15
2022-11-20T12:59:51.650Z,-2.11
2022-11-20T13:02:30.086Z,-2.15
2022-11-20T13:05:21.083Z,-2.21
2022-11-20T13:07:53.755Z,-2.14
2022-11-20T13:10:36.579Z,-2.24
2022-11-20T13:13:27.915Z,-2.23
2022-11-20T13:16:04.645Z,-2.29
2022-11-20T13:18:40.672Z,-2.28
2022-11-20T13:21:22.634Z,-2.23
2022-11-20T13:23:54.108Z,-2.27
2022-11-20T13:26:26.356Z,-2.30
2022-11-20T13:29:12.046Z,-2.26
2022-11-20T13:31:46.913Z,-2.27
2022-11-20T13:34:27.032Z,-2.34
2022-11-20T13:36:59.480Z,-2.27
2022-11-20T13:39:29.883Z,-2.34
2022-11-20T13:42:02.134Z,-2.31
2022-11-20T13:44:40.254Z,-2.31
2022-11-20T13:47:26.799Z,-2.34
2022-11-20T13:49:59.758Z,-2.29
2022-11-20T13:52:48.821Z,-2.27
2022-11-20T13:55:29.915Z,-2.27
2022-11-20T13:58:20.218Z,-2.27
2022-11-20T14:00:58.757Z,-2.18
2022-11-20T14:03:58.979Z,-2.25
2022-11-20T14:06:45.566Z,-2.32
2022-11-20T14:09:28.627Z,-2.35
2022-11-20T14:11:57.779Z,-2.45
2022-11-20T14:14:31.019Z,-2.45
2022-11-20T14:17:18.020Z,-2.46
2022-11-20T14:19:50.008Z,-2.48
2022-11-20T14:22:23.580Z,-2.43
2022-11-20T14:25:07.938Z,-2.50
2022-11-20T14:27:41.781Z,-2.50
2022-11-20T14:30:23.950Z,-2.50
2022-11-20T14:32:59.648Z,-2.43
2022-11-20T14:35:32.746Z,-2.36
2022-11-20T14:38:03.007Z,-2.51
2022-11-20T14:40:36.605Z,-2.53
2022-11-20T14:43:21.666Z,-2.50
2022-11-20T14:46:00.288Z,-2.48
2022-11-20T14:48:36.440Z,-2.51
2022-11-20T14:51:05.777Z,-2.47
2022-11-20T14:53:52.461Z,-2.44
2022-11-20T14:56:25.913Z,-2.33
2022-11-20T14:59:00.178Z,-2.48
2022-11-20T15:01:33.394Z,-2.48
2022-11-20T15:04:07.914Z,-2.53
2022-11-20T15:06:37.220Z,-2.55
2022-11-20T15:09:07.528Z,-2.50
2022-11-20T15:11:38.671Z,-2.43
2022-11-20T15:14:11.788Z,-2.43
2022-11-20T15:16:42.649Z,-2.39
2022-11-20T15:19:21.976Z,-2.46
2022-11-20T15:21:51.755Z,-2.46
2022-11-20T15:24:21.653Z,-2.48
2022-11-20T15:26:52.258Z,-2.41
2022-11-20T15:29:22.084Z,-2.48
2022-11-20T15:31:53.911Z,-2.55
2022-11-20T15:34:22.981Z,-2.62
2022-11-20T15:36:59.375Z,-2.53
2022-11-20T15:39:31.140Z,-2.55
2022-11-20T15:42:01.806Z,-2.50
2022-11-20T15:44:31.999Z,-2.48
2022-11-20T15:47:02.301Z,-2.50
2022-11-20T15:49:31.075Z,-2.44
2022-11-20T15:52:00.373Z,-2.47
2022-11-20T15:54:29.685Z,-2.44
2022-11-20T15:56:58.496Z,-2.41
2022-11-20T15:59:30.804Z,-2.44
2022-11-20T16:01:59.726Z,-2.48
2022-11-20T16:04:29.913Z,-2.49
2022-11-20T16:06:59.147Z,-2.55
2022-11-20T16:09:28.303Z,-2.53
2022-11-20T16:11:57.432Z,-2.52
2022-11-20T16:14:45.539Z,-2.49
2022-11-20T16:17:15.127Z,-2.38
2022-11-20T16:19:45.618Z,-2.44
2022-11-20T16:22:14.496Z,-2.34
2022-11-20T16:24:43.723Z,-2.38
2022-11-20T16:27:12.996Z,-2.30
2022-11-20T16:29:41.805Z,-2.34
2022-11-20T16:34:55.148Z,-2.36
2022-11-20T16:37:24.076Z,-2.28
2022-11-20T16:39:53.309Z,-2.27
2022-11-20T16:42:22.570Z,-2.23
2022-11-20T16:44:51.526Z,-2.32
2022-11-20T16:47:20.645Z,-2.29
2022-11-20T16:49:50.338Z,-2.29
2022-11-20T16:52:29.728Z,-2.28
2022-11-20T16:55:01.113Z,-2.20
2022-11-20T16:57:39.113Z,-2.22
2022-11-20T17:00:10.211Z,-2.18
2022-11-20T17:02:39.844Z,-2.21
2022-11-20T17:05:10.546Z,-2.20
2022-11-20T17:07:40.840Z,-2.19
2022-11-20T17:10:10.437Z,-2.27
2022-11-20T17:12:40.064Z,-2.22
2022-11-20T17:15:09.886Z,-2.20
2022-11-20T17:17:39.774Z,-2.18
2022-11-20T17:20:17.096Z,-2.17
2022-11-20T17:22:47.303Z,-2.19
2022-11-20T17:25:20.869Z,-2.23
2022-11-20T17:27:49.820Z,-2.13
2022-11-20T17:30:22.138Z,-2.16
2022-11-20T17:32:54.240Z,-2.09
2022-11-20T17:35:23.526Z,-2.10
2022-11-20T17:37:53.733Z,-2.10
2022-11-20T17:40:27.099Z,-2.07
2022-11-20T17:42:57.351Z,-2.12
2022-11-20T17:45:26.706Z,-2.09
2022-11-20T17:47:55.783Z,-2.15
2022-11-20T17:50:25.041Z,-2.10
2022-11-20T17:52:55.225Z,-2.11
2022-11-20T17:55:24.708Z,-2.15
2022-11-20T17:57:53.276Z,-2.17
2022-11-20T18:00:22.599Z,-2.19
2022-11-20T18:02:52.439Z,-2.12
2022-11-20T18:05:21.898Z,-2.09
2022-11-20T18:07:55.960Z,-2.02
2022-11-20T18:10:24.897Z,-2.03
2022-11-20T18:12:54.725Z,-2.03
2022-11-20T18:15:24.428Z,-2.00
2022-11-20T18:17:56.345Z,-1.92
2022-11-20T18:20:31.168Z,-1.99
2022-11-20T18:23:04.170Z,-2.08
2022-11-20T18:25:45.164Z,-1.95
2022-11-20T18:28:20.070Z,-1.92
2022-11-20T18:30:49.656Z,-1.92
2022-11-20T18:33:28.153Z,-1.86
2022-11-20T18:36:12.348Z,-1.87
2022-11-20T18:38:48.800Z,-1.96
2022-11-20T18:41:40.127Z,-2.00
2022-11-20T18:44:34.369Z,-1.98
2022-11-20T18:47:08.359Z,-2.03
2022-11-20T18:49:43.531Z,-1.87
2022-11-20T18:52:14.836Z,-1.90
2022-11-20T18:54:45.807Z,-1.88
2022-11-20T18:57:15.940Z,-1.97
2022-11-20T18:59:45.398Z,-1.97
2022-11-20T19:02:15.845Z,-1.99
2022-11-20T19:04:45.233Z,-2.01
2022-11-20T19:07:17.293Z,-2.01
2022-11-20T19:09:52.737Z,-1.99
2022-11-20T19:12:22.827Z,-2.03
2022-11-20T19:14:52.785Z,-2.03
2022-11-20T19:17:21.773Z,-2.09
2022-11-20T19:19:51.406Z,-2.03
2022-11-20T19:22:21.677Z,-2.07
2022-11-20T19:24:52.200Z,-2.07
2022-11-20T19:27:22.092Z,-2.19
2022-11-20T19:29:51.085Z,-2.16
2022-11-20T19:32:20.041Z,-2.32
2022-11-20T19:34:49.687Z,-2.35
2022-11-20T19:37:19.040Z,-2.34
2022-11-20T19:39:48.264Z,-2.45
2022-11-20T19:42:19.542Z,-2.52
2022-11-20T19:44:49.724Z,-2.69
2022-11-20T19:47:19.421Z,-2.73
2022-11-20T19:49:48.864Z,-2.74
2022-11-20T19:52:17.883Z,-2.77
2022-11-20T19:54:47.789Z,-2.88
2022-11-20T19:57:36.384Z,-2.97
2022-11-20T20:00:08.751Z,-2.96
2022-11-20T20:02:41.278Z,-3.04
2022-11-20T20:05:10.999Z,-3.06
2022-11-20T20:07:40.455Z,-3.13
2022-11-20T20:10:12.154Z,-3.19
2022-11-20T20:12:44.236Z,-3.10
2022-11-20T20:15:13.654Z,-3.07
2022-11-20T20:17:42.450Z,-3.06
2022-11-20T20:20:12.957Z,-3.11
2022-11-20T20:22:42.210Z,-3.03
2022-11-20T20:25:11.748Z,-3.08
2022-11-20T20:27:46.715Z,-3.06
2022-11-20T20:30:16.379Z,-3.11
2022-11-20T20:32:56.451Z,-3.10
2022-11-20T20:35:28.734Z,-3.12
2022-11-20T20:38:03.159Z,-3.11
2022-11-20T20:40:33.141Z,-3.16
2022-11-20T20:43:08.683Z,-3.17
2022-11-20T20:45:44.963Z,-3.16
2022-11-20T20:48:27.191Z,-3.26
2022-11-20T20:51:03.071Z,-3.34
2022-11-20T20:53:34.202Z,-3.34
2022-11-20T20:56:06.770Z,-3.30
2022-11-20T20:58:43.868Z,-3.29
2022-11-20T21:01:16.633Z,-3.39
2022-11-20T21:03:46.738Z,-3.43
2022-11-20T21:09:01.763Z,-3.47
2022-11-20T21:11:31.121Z,-3.41
2022-11-20T21:14:04.456Z,-3.47
2022-11-20T21:19:25.184Z,-3.52
2022-11-20T21:22:03.356Z,-3.49
2022-11-20T21:24:34.899Z,-3.41
2022-11-20T21:27:08.282Z,-3.42
2022-11-20T21:29:38.974Z,-3.41
2022-11-20T21:32:07.916Z,-3.35
2022-11-20T21:34:36.886Z,-3.38
2022-11-20T21:37:06.478Z,-3.32
2022-11-20T21:39:50.804Z,-3.31
2022-11-20T21:49:14.958Z,-3.36
2022-11-20T21:51:44.991Z,-3.33
2022-11-20T21:54:13.897Z,-3.37
2022-11-20T21:56:42.530Z,-3.39
2022-11-20T21:59:14.303Z,-3.37
2022-11-20T22:01:44.219Z,-3.51
2022-11-20T22:04:15.903Z,-3.41
2022-11-20T22:06:49.456Z,-3.39
2022-11-20T22:09:18.430Z,-3.35
2022-11-20T22:11:47.499Z,-3.34
2022-11-20T22:14:21.047Z,-3.36
2022-11-20T22:16:56.765Z,-3.39
2022-11-20T22:19:28.110Z,-3.29
2022-11-20T22:21:58.104Z,-3.40
2022-11-20T22:24:27.072Z,-3.26
2022-11-20T22:26:55.911Z,-3.30
2022-11-20T22:29:24.528Z,-3.25
2022-11-20T22:31:54.032Z,-3.32
2022-11-20T22:34:23.641Z,-3.32
2022-11-20T22:36:52.394Z,-3.23
2022-11-20T22:39:23.224Z,-3.32
2022-11-20T22:41:51.930Z,-3.32
2022-11-20T22:44:20.493Z,-3.36
2022-11-20T22:46:59.876Z,-3.38
2022-11-20T22:49:32.245Z,-3.33
2022-11-20T22:52:08.725Z,-3.36
2022-11-20T22:54:38.924Z,-3.33
2022-11-20T22:57:11.474Z,-3.41
2022-11-20T22:59:45.664Z,-3.36
2022-11-20T23:02:15.763Z,-3.41
2022-11-20T23:04:46.843Z,-3.38
2022-11-20T23:07:22.846Z,-3.36
2022-11-20T23:10:19.420Z,-3.39
2022-11-20T23:12:51.628Z,-3.41
2022-11-20T23:15:30.305Z,-3.39
2022-11-20T23:18:02.161Z,-3.39
2022-11-20T23:20:39.126Z,-3.38
2022-11-20T23:23:22.576Z,-3.38
2022-11-20T23:26:14.439Z,-3.34
2022-11-20T23:28:45.954Z,-3.36
2022-11-20T23:31:16.522Z,-3.33
2022-11-20T23:37:03.177Z,-3.36
2022-11-20T23:39:35.229Z,-3.41
2022-11-20T23:42:17.891Z,-3.39
2022-11-20T23:44:50.538Z,-3.39
2022-11-20T23:47:21.903Z,-3.40
2022-11-20T23:53:24.369Z,-3.44
2022-11-20T23:55:56.372Z,-3.43
2022-11-20T23:58:34.925Z,-3.45
